createdAt,value
2022-10-04T00:00:00.260Z,995.4899
2022-10-04T00:01:00.413Z,995.6322
2022-10-04T00:02:00.626Z,995.625
2022-10-04T00:03:00.768Z,995.5691
2022-10-04T00:04:00.866Z,995.5187
2022-10-04T00:05:01.006Z,995.5546
2022-10-04T00:06:01.157Z,995.5041
2022-10-04T00:07:00.294Z,995.6967
2022-10-04T00:08:00.448Z,995.5616
2022-10-04T00:09:00.612Z,995.4396
2022-10-04T00:10:00.752Z,995.6463
2022-10-04T00:11:00.896Z,995.5616
2022-10-04T00:12:01.049Z,995.4825
2022-10-04T00:13:01.193Z,995.6818
2022-10-04T00:14:00.349Z,995.5112
2022-10-04T00:15:00.512Z,995.6818
2022-10-04T00:16:00.727Z,995.4537
2022-10-04T00:17:00.796Z,995.4465
2022-10-04T00:18:00.941Z,995.5112
2022-10-04T00:19:01.095Z,995.6463
2022-10-04T00:20:01.278Z,995.5041
2022-10-04T00:21:00.396Z,995.5112
2022-10-04T00:22:00.537Z,995.6391
2022-10-04T00:23:00.682Z,995.5041
2022-10-04T00:24:00.826Z,995.4682
2022-10-04T00:25:00.995Z,995.6391
2022-10-04T00:26:01.114Z,995.4396
2022-10-04T00:27:00.260Z,995.5333
2022-10-04T00:28:00.491Z,995.6396
2022-10-04T00:29:00.546Z,995.3895
2022-10-04T00:30:00.731Z,995.5116
2022-10-04T00:31:00.903Z,995.6108
2022-10-04T00:32:00.985Z,995.447
2022-10-04T00:33:01.134Z,995.4758
2022-10-04T00:34:00.282Z,995.6038
2022-10-04T00:35:00.455Z,995.5262
2022-10-04T00:36:00.596Z,995.5333
2022-10-04T00:37:00.736Z,995.4328
2022-10-04T00:38:00.885Z,995.4399
2022-10-04T00:39:01.059Z,995.4545
2022-10-04T00:40:01.185Z,995.6541
2022-10-04T00:41:00.337Z,995.4687
2022-10-04T00:42:00.476Z,995.3969
2022-10-04T00:43:00.626Z,995.5121
2022-10-04T00:44:00.800Z,995.354
2022-10-04T00:45:00.933Z,995.5049
2022-10-04T00:46:01.201Z,995.3828
2022-10-04T00:47:01.249Z,995.4045
2022-10-04T00:48:00.380Z,995.577
2022-10-04T00:49:00.547Z,995.462
2022-10-04T00:50:00.693Z,995.3904
2022-10-04T00:51:00.819Z,995.4045
2022-10-04T00:52:00.962Z,995.462
2022-10-04T00:53:01.109Z,995.4908
2022-10-04T00:55:00.368Z,995.3041
2022-10-04T00:56:00.500Z,995.4191
2022-10-04T00:57:00.646Z,995.2895
2022-10-04T00:58:00.786Z,995.2466
2022-10-04T00:59:00.933Z,995.3328
2022-10-04T01:00:01.106Z,995.3475
2022-10-04T01:01:01.293Z,995.4337
2022-10-04T01:02:00.632Z,995.3762
2022-10-04T01:03:00.535Z,995.4337
2022-10-04T01:04:00.682Z,995.3762
2022-10-04T01:05:00.846Z,995.3979
2022-10-04T01:06:00.969Z,995.369
2022-10-04T01:07:01.115Z,995.3475
2022-10-04T01:08:00.263Z,995.4337
2022-10-04T01:09:00.410Z,995.4337
2022-10-04T01:10:00.588Z,995.3762
2022-10-04T01:11:00.710Z,995.3475
2022-10-04T01:12:00.857Z,995.4913
2022-10-04T01:13:01.007Z,995.4913
2022-10-04T01:14:01.158Z,995.5129
2022-10-04T01:15:00.315Z,995.4266
2022-10-04T01:16:00.498Z,995.3762
2022-10-04T01:17:00.597Z,995.405
2022-10-04T01:18:02.032Z,995.4337
2022-10-04T01:19:00.915Z,995.3762
2022-10-04T01:20:01.054Z,995.3475
2022-10-04T01:21:01.215Z,995.4625
2022-10-04T01:22:00.354Z,995.5128
2022-10-04T01:23:00.508Z,995.5416
2022-10-04T01:24:00.646Z,995.6191
2022-10-04T01:25:00.828Z,995.4841
2022-10-04T01:26:00.952Z,995.52
2022-10-04T01:27:01.088Z,995.3762
2022-10-04T01:28:01.288Z,995.4266
2022-10-04T01:29:00.365Z,995.4337
2022-10-04T01:30:00.547Z,995.4337
2022-10-04T01:31:00.712Z,995.5629
2022-10-04T01:32:00.844Z,995.3762
2022-10-04T01:33:00.983Z,995.4913
2022-10-04T01:34:01.125Z,995.4913
2022-10-04T01:35:00.283Z,995.5271
2022-10-04T01:36:00.409Z,995.4696
2022-10-04T01:37:00.551Z,995.4479
2022-10-04T01:38:00.701Z,995.4337
2022-10-04T01:39:00.865Z,995.5271
2022-10-04T01:40:00.994Z,995.3833
2022-10-04T01:41:01.141Z,995.7408
2022-10-04T01:42:00.289Z,995.4766
2022-10-04T01:43:00.440Z,995.3833
2022-10-04T01:44:00.568Z,995.3545
2022-10-04T01:45:00.732Z,995.4121
2022-10-04T01:46:00.950Z,995.3258
2022-10-04T01:47:01.024Z,995.5271
2022-10-04T01:48:01.202Z,995.3475
2022-10-04T01:49:00.320Z,995.3762
2022-10-04T01:50:00.469Z,995.3762
2022-10-04T01:51:00.618Z,995.3978
2022-10-04T01:52:00.774Z,995.369
2022-10-04T01:53:00.944Z,995.369
2022-10-04T01:54:01.080Z,995.3475
2022-10-04T01:55:01.214Z,995.2758
2022-10-04T01:56:00.356Z,995.3762
2022-10-04T01:57:00.501Z,995.3115
2022-10-04T01:58:00.656Z,995.2111
2022-10-04T01:59:00.823Z,995.3334
2022-10-04T02:00:00.988Z,995.1608
2022-10-04T02:01:01.164Z,995.3115
2022-10-04T02:02:01.246Z,995.2758
2022-10-04T02:03:00.396Z,995.1896
2022-10-04T02:04:00.532Z,995.2974
2022-10-04T02:05:00.740Z,995.4124
2022-10-04T02:06:00.833Z,995.233
2022-10-04T02:07:00.973Z,995.4196
2022-10-04T02:08:01.127Z,995.3046
2022-10-04T02:09:00.266Z,995.2903
2022-10-04T02:10:00.429Z,995.2258
2022-10-04T02:11:00.589Z,995.3408
2022-10-04T02:12:00.707Z,995.233
2022-10-04T02:13:00.858Z,995.3549
2022-10-04T02:14:01.007Z,995.2258
2022-10-04T02:15:01.138Z,995.2833
2022-10-04T02:16:00.360Z,995.068
2022-10-04T02:17:00.430Z,995.1255
2022-10-04T02:18:00.596Z,995.0968
2022-10-04T02:19:00.749Z,995.3268
2022-10-04T02:20:00.891Z,995.2833
2022-10-04T02:21:01.061Z,995.3408
2022-10-04T02:22:01.190Z,995.2258
2022-10-04T02:23:00.332Z,995.1395
2022-10-04T02:24:00.486Z,995.3192
2022-10-04T02:25:00.636Z,995.3268
2022-10-04T02:26:00.804Z,995.1255
2022-10-04T02:27:00.937Z,995.2552
2022-10-04T02:28:01.144Z,995.1543
2022-10-04T02:29:01.232Z,995.1114
2022-10-04T02:30:00.389Z,995.1402
2022-10-04T02:31:00.556Z,995.0539
2022-10-04T02:32:00.647Z,995.0539
2022-10-04T02:33:00.825Z,995.1114
2022-10-04T02:34:00.939Z,995.1977
2022-10-04T02:35:01.106Z,995.1259
2022-10-04T02:36:01.241Z,995.0325
2022-10-04T02:37:00.393Z,995.083
2022-10-04T02:38:00.539Z,995.1979
2022-10-04T02:39:00.678Z,995.1692
2022-10-04T02:40:00.848Z,995.1621
2022-10-04T02:41:01.004Z,995.0185
2022-10-04T02:42:01.130Z,995.3492
2022-10-04T02:43:00.275Z,995.0905
2022-10-04T02:44:00.422Z,995.1122
2022-10-04T02:45:00.566Z,995.019
2022-10-04T02:46:00.781Z,994.9832
2022-10-04T02:47:00.862Z,995.2418
2022-10-04T02:48:01.013Z,995.2418
2022-10-04T02:49:01.164Z,995.1273
2022-10-04T02:50:00.298Z,995.1273
2022-10-04T02:51:00.486Z,995.0915
2022-10-04T02:52:00.601Z,995.1273
2022-10-04T02:53:00.745Z,995.1923
2022-10-04T02:54:03.432Z,995.1494
2022-10-04T02:55:01.041Z,995.1352
2022-10-04T02:56:01.215Z,995.0995
2022-10-04T02:57:00.333Z,995.042
2022-10-04T02:58:00.480Z,995.1782
2022-10-04T02:59:00.638Z,995.2574
2022-10-04T03:00:00.791Z,995.042
2022-10-04T03:01:01.073Z,995.0854
2022-10-04T03:02:01.165Z,995.1499
2022-10-04T03:03:01.231Z,995.107
2022-10-04T03:04:00.385Z,995.0496
2022-10-04T03:05:00.524Z,995.1862
2022-10-04T03:06:00.703Z,995.0425
2022-10-04T03:07:00.819Z,994.9135
2022-10-04T03:08:00.962Z,994.9708
2022-10-04T03:09:01.112Z,994.9851
2022-10-04T03:10:01.262Z,995.1358
2022-10-04T03:11:00.425Z,995.0713
2022-10-04T03:12:00.541Z,994.9996
2022-10-04T03:13:00.703Z,995.057
2022-10-04T03:14:00.859Z,995.1432
2022-10-04T03:15:00.989Z,994.9423
2022-10-04T03:16:01.231Z,994.9496
2022-10-04T03:17:00.295Z,994.8852
2022-10-04T03:18:00.444Z,995.0862
2022-10-04T03:19:00.602Z,995.0001
2022-10-04T03:20:00.755Z,995.0721
2022-10-04T03:21:00.942Z,994.9719
2022-10-04T03:22:01.054Z,994.9719
2022-10-04T03:23:01.183Z,994.8717
2022-10-04T03:24:00.337Z,995.044
2022-10-04T03:25:00.500Z,994.8576
2022-10-04T03:26:00.649Z,994.8576
2022-10-04T03:27:00.795Z,994.8863
2022-10-04T03:28:01.007Z,994.9004
2022-10-04T03:29:01.088Z,994.8862
2022-10-04T03:30:01.233Z,995.0298
2022-10-04T03:31:00.448Z,994.8289
2022-10-04T03:32:00.512Z,994.8651
2022-10-04T03:33:00.699Z,995.0374
2022-10-04T03:34:00.837Z,994.9301
2022-10-04T03:35:01.020Z,994.9588
2022-10-04T03:36:01.129Z,994.9875
2022-10-04T03:37:01.279Z,994.9231
2022-10-04T03:38:00.387Z,994.9094
2022-10-04T03:39:00.539Z,994.9311
2022-10-04T03:40:00.694Z,994.9239
2022-10-04T03:41:00.849Z,994.8095
2022-10-04T03:42:01.014Z,994.9032
2022-10-04T03:43:01.144Z,994.8316
2022-10-04T03:44:04.169Z,994.7597
2022-10-04T03:45:00.424Z,994.7597
2022-10-04T03:46:00.607Z,994.9319
2022-10-04T03:47:00.759Z,994.9319
2022-10-04T03:48:00.872Z,994.8247
2022-10-04T03:49:01.032Z,994.8608
2022-10-04T03:50:01.177Z,994.8034
2022-10-04T03:51:00.309Z,994.9973
2022-10-04T03:52:00.481Z,995.1267
2022-10-04T03:53:00.610Z,995.1267
2022-10-04T03:54:00.766Z,995.0481
2022-10-04T03:55:00.909Z,994.948
2022-10-04T03:56:04.402Z,994.941
2022-10-04T03:57:01.200Z,994.9123
2022-10-04T03:58:00.347Z,995.0487
2022-10-04T03:59:00.489Z,994.9773
2022-10-04T04:00:00.650Z,994.949
2022-10-04T04:01:00.871Z,994.8774
2022-10-04T04:02:01.021Z,994.9061
2022-10-04T04:03:01.086Z,994.9348
2022-10-04T04:04:01.234Z,994.8276
2022-10-04T04:05:00.401Z,994.9283
2022-10-04T04:06:00.519Z,994.9211
2022-10-04T04:07:00.680Z,994.8569
2022-10-04T04:08:00.844Z,994.8569
2022-10-04T04:09:00.961Z,994.9287
2022-10-04T04:10:01.098Z,994.7855
2022-10-04T04:11:01.241Z,994.9
2022-10-04T04:12:00.383Z,994.9142
2022-10-04T04:13:00.607Z,994.8569
2022-10-04T04:14:00.715Z,994.814
2022-10-04T04:15:00.870Z,994.9071
2022-10-04T04:16:01.152Z,994.9575
2022-10-04T04:17:01.128Z,994.8569
2022-10-04T04:18:00.294Z,994.8715
2022-10-04T04:19:00.425Z,994.9861
2022-10-04T04:20:06.132Z,994.9002
2022-10-04T04:21:00.733Z,995.0149
2022-10-04T04:22:00.877Z,994.7713
2022-10-04T04:23:01.027Z,994.7859
2022-10-04T04:24:01.166Z,994.9363
2022-10-04T04:25:00.312Z,994.8577
2022-10-04T04:26:00.454Z,994.8146
2022-10-04T04:27:00.637Z,994.8432
2022-10-04T04:28:00.843Z,994.6999
2022-10-04T04:29:00.920Z,994.9222
2022-10-04T04:30:01.046Z,995.0011
2022-10-04T04:31:01.203Z,994.6816
2022-10-04T04:32:00.412Z,994.7506
2022-10-04T04:33:00.515Z,994.7221
2022-10-04T04:34:00.809Z,994.7723
2022-10-04T04:35:00.801Z,994.8729
2022-10-04T04:36:00.956Z,994.8085
2022-10-04T04:37:01.098Z,994.7231
2022-10-04T04:38:01.265Z,994.8446
2022-10-04T04:39:00.392Z,994.6617
2022-10-04T04:40:00.532Z,994.8598
2022-10-04T04:41:00.688Z,994.7744
2022-10-04T04:42:00.823Z,994.9533
2022-10-04T04:43:00.979Z,994.9322
2022-10-04T04:44:01.143Z,994.9323
2022-10-04T04:45:00.307Z,994.961
2022-10-04T04:46:22.409Z,994.8039
2022-10-04T04:47:00.884Z,995.0191
2022-10-04T04:48:00.705Z,994.9477
2022-10-04T04:49:00.859Z,994.8692
2022-10-04T04:50:00.999Z,994.8335
2022-10-04T04:51:01.151Z,994.9054
2022-10-04T04:52:00.294Z,994.8768
2022-10-04T04:53:00.479Z,994.834
2022-10-04T04:54:00.595Z,994.8698
2022-10-04T04:55:00.738Z,994.8556
2022-10-04T04:56:04.868Z,994.9561
2022-10-04T04:57:01.043Z,994.8415
2022-10-04T04:58:01.201Z,994.8988
2022-10-04T04:59:00.328Z,994.9848
2022-10-04T05:00:00.468Z,994.9561
2022-10-04T05:01:00.716Z,994.8059
2022-10-04T05:02:00.820Z,994.9561
2022-10-04T05:03:00.964Z,994.8918
2022-10-04T05:04:01.087Z,994.8059
2022-10-04T05:05:01.236Z,994.7346
2022-10-04T05:06:00.369Z,994.842
2022-10-04T05:07:00.520Z,994.6734
2022-10-04T05:08:00.711Z,994.7847
2022-10-04T05:09:00.834Z,994.8491
2022-10-04T05:10:00.968Z,994.842
2022-10-04T05:11:01.122Z,994.9637
2022-10-04T05:12:00.267Z,994.7779
2022-10-04T05:13:00.435Z,994.8212
2022-10-04T05:14:00.550Z,994.7779
2022-10-04T05:15:00.711Z,994.756
2022-10-04T05:16:00.940Z,994.8059
2022-10-04T05:17:01.005Z,994.9848
2022-10-04T05:18:01.174Z,994.8632
2022-10-04T05:19:00.294Z,995.0637
2022-10-04T05:20:00.478Z,994.9637
2022-10-04T05:21:00.590Z,994.9565
2022-10-04T05:22:00.727Z,994.9637
2022-10-04T05:23:00.907Z,995.035
2022-10-04T05:24:01.026Z,995.035
2022-10-04T05:25:01.171Z,994.8632
2022-10-04T05:26:00.343Z,994.9415
2022-10-04T05:27:00.456Z,994.7983
2022-10-04T05:28:00.678Z,994.9341
2022-10-04T05:29:00.768Z,994.8194
2022-10-04T05:30:00.916Z,994.9838
2022-10-04T05:31:01.054Z,995.091
2022-10-04T05:32:01.250Z,994.9477
2022-10-04T05:33:00.361Z,995.0191
2022-10-04T05:34:00.443Z,995.0122
2022-10-04T05:35:00.598Z,994.9549
2022-10-04T05:36:00.744Z,994.9477
2022-10-04T05:37:00.891Z,994.8692
2022-10-04T05:38:01.061Z,995.005
2022-10-04T05:39:01.178Z,994.9477
2022-10-04T05:40:00.336Z,995.0122
2022-10-04T05:41:00.468Z,995.0619
2022-10-04T05:42:00.606Z,995.0976
2022-10-04T05:43:00.783Z,994.9185
2022-10-04T05:44:00.920Z,994.9896
2022-10-04T05:45:01.060Z,994.8463
2022-10-04T05:46:01.242Z,994.9464
2022-10-04T05:47:00.350Z,994.9035
2022-10-04T05:48:00.519Z,994.889
2022-10-04T05:49:00.652Z,994.9031
2022-10-04T05:50:00.799Z,994.8025
2022-10-04T05:51:00.944Z,995.0244
2022-10-04T05:52:01.105Z,994.9956
2022-10-04T05:53:01.286Z,995.0244
2022-10-04T05:54:00.373Z,994.881
2022-10-04T05:55:00.521Z,994.881
2022-10-04T05:56:00.669Z,994.8524
2022-10-04T05:57:00.825Z,994.8522
2022-10-04T05:58:00.983Z,995.0529
2022-10-04T05:59:01.120Z,994.9096
2022-10-04T06:00:04.113Z,994.9524
2022-10-04T06:01:00.460Z,995.0098
2022-10-04T06:02:00.845Z,994.9524
2022-10-04T06:03:00.755Z,994.909
2022-10-04T06:04:00.898Z,995.0449
2022-10-04T06:05:01.034Z,994.9156
2022-10-04T06:06:01.178Z,994.9228
2022-10-04T06:07:00.332Z,994.9513
2022-10-04T06:08:00.533Z,994.9369
2022-10-04T06:09:00.637Z,994.9222
2022-10-04T06:10:00.779Z,995.0585
2022-10-04T06:11:00.932Z,995.051
2022-10-04T06:12:01.060Z,995.0223
2022-10-04T06:13:01.233Z,994.8503
2022-10-04T06:14:00.355Z,995.0294
2022-10-04T06:15:00.494Z,995.0077
2022-10-04T06:16:00.650Z,994.972
2022-10-04T06:17:00.846Z,994.8573
2022-10-04T06:18:00.949Z,994.7999
2022-10-04T06:19:01.077Z,994.8715
2022-10-04T06:20:01.245Z,994.9861
2022-10-04T06:21:00.375Z,994.8714
2022-10-04T06:22:00.515Z,995.0863
2022-10-04T06:23:00.687Z,994.9211
2022-10-04T06:24:00.817Z,994.8276
2022-10-04T06:25:00.970Z,994.964
2022-10-04T06:26:01.106Z,994.9061
2022-10-04T06:27:00.248Z,994.82
2022-10-04T06:28:00.489Z,994.8987
2022-10-04T06:29:00.578Z,994.8196
2022-10-04T06:30:00.696Z,994.8911
2022-10-04T06:31:00.859Z,994.941
2022-10-04T06:32:01.008Z,994.948
2022-10-04T06:33:01.153Z,994.7614
2022-10-04T06:34:00.309Z,994.8542
2022-10-04T06:35:00.460Z,995.1267
2022-10-04T06:36:00.603Z,994.9616
2022-10-04T06:37:00.739Z,994.8895
2022-10-04T06:38:00.875Z,994.746
2022-10-04T06:39:04.243Z,994.7889
2022-10-04T06:40:01.183Z,994.7167
2022-10-04T06:41:00.322Z,994.7597
2022-10-04T06:42:00.465Z,995.0034
2022-10-04T06:43:00.621Z,994.9747
2022-10-04T06:44:00.788Z,995.0749
2022-10-04T06:45:00.935Z,995.0462
2022-10-04T06:46:01.158Z,995.0459
2022-10-04T06:47:01.208Z,995.1528
2022-10-04T06:48:00.361Z,995.1528
2022-10-04T06:49:00.502Z,995.0303
2022-10-04T06:50:00.658Z,995.0012
2022-10-04T06:51:00.812Z,995.0797
2022-10-04T06:52:00.953Z,995.0362
2022-10-04T06:53:01.102Z,995.0576
2022-10-04T06:54:01.239Z,995.2152
2022-10-04T06:55:00.393Z,995.1146
2022-10-04T06:56:00.553Z,994.9851
2022-10-04T06:57:00.693Z,995.2794
2022-10-04T06:58:00.837Z,995.1428
2022-10-04T06:59:00.979Z,995.0637
2022-10-04T07:00:01.152Z,995.3293
2022-10-04T07:01:00.323Z,995.2144
2022-10-04T07:02:00.471Z,995.2935
2022-10-04T07:03:00.567Z,995.1927
2022-10-04T07:04:00.725Z,995.2932
2022-10-04T07:05:08.454Z,995.4367
2022-10-04T07:06:01.006Z,995.2356
2022-10-04T07:07:01.170Z,995.0774
2022-10-04T07:08:00.314Z,995.1636
2022-10-04T07:09:00.466Z,995.0915
2022-10-04T07:10:00.638Z,995.3568
2022-10-04T07:11:00.766Z,995.2706
2022-10-04T07:12:00.913Z,995.2418
2022-10-04T07:13:01.070Z,995.2706
2022-10-04T07:14:01.206Z,995.2776
2022-10-04T07:15:00.363Z,994.9684
2022-10-04T07:16:00.596Z,994.9756
2022-10-04T07:17:00.654Z,995.2196
2022-10-04T07:18:00.802Z,995.2264
2022-10-04T07:19:00.962Z,995.0397
2022-10-04T07:20:01.106Z,995.0105
2022-10-04T07:21:01.272Z,995.2042
2022-10-04T07:22:00.394Z,995.1896
2022-10-04T07:23:00.559Z,995.0674
2022-10-04T07:24:00.705Z,995.139
2022-10-04T07:25:00.841Z,995.1462
2022-10-04T07:26:00.998Z,995.2178
2022-10-04T07:27:01.132Z,995.0165
2022-10-04T07:28:00.340Z,995.1744
2022-10-04T07:29:00.447Z,995.1382
2022-10-04T07:30:00.580Z,995.1382
2022-10-04T07:31:00.797Z,995.3032
2022-10-04T07:32:00.901Z,995.2457
2022-10-04T07:33:01.042Z,995.3533
2022-10-04T07:34:01.182Z,995.3315
2022-10-04T07:35:00.351Z,995.3099
2022-10-04T07:36:00.482Z,995.2523
2022-10-04T07:37:00.649Z,995.4604
2022-10-04T07:38:00.783Z,995.4604
2022-10-04T07:39:00.927Z,995.4528
2022-10-04T07:40:01.081Z,995.5176
2022-10-04T07:41:01.234Z,995.4094
2022-10-04T07:42:00.384Z,995.5676
2022-10-04T07:43:00.540Z,995.4595
2022-10-04T07:44:00.678Z,995.402
2022-10-04T07:45:00.816Z,995.4883
2022-10-04T07:46:00.965Z,995.402
2022-10-04T07:47:01.106Z,995.4595
2022-10-04T07:48:01.274Z,995.3302
2022-10-04T07:49:00.398Z,995.4453
2022-10-04T07:50:00.527Z,995.5171
2022-10-04T07:51:00.671Z,995.3658
2022-10-04T07:52:00.826Z,995.3658
2022-10-04T07:53:02.377Z,995.1643
2022-10-04T07:54:01.118Z,995.4589
2022-10-04T07:55:00.273Z,995.3222
2022-10-04T07:56:00.410Z,995.2212
2022-10-04T07:57:00.568Z,995.2929
2022-10-04T07:58:00.743Z,995.3146
2022-10-04T07:59:00.870Z,995.2354
2022-10-04T08:00:01.011Z,995.3864
2022-10-04T08:01:01.151Z,995.4581
2022-10-04T08:02:00.322Z,995.4939
2022-10-04T08:03:00.578Z,995.4436
2022-10-04T08:04:00.585Z,995.5153
2022-10-04T08:05:00.734Z,995.5725
2022-10-04T08:06:00.896Z,995.6284
2022-10-04T08:07:01.031Z,995.6284
2022-10-04T08:08:01.207Z,995.6284
2022-10-04T08:09:00.328Z,995.6642
2022-10-04T08:10:00.481Z,995.4928
2022-10-04T08:11:00.621Z,995.4349
2022-10-04T08:12:00.768Z,995.4349
2022-10-04T08:13:00.944Z,995.7281
2022-10-04T08:14:01.053Z,995.5499
2022-10-04T08:15:01.247Z,995.9226
2022-10-04T08:16:00.388Z,995.6922
2022-10-04T08:17:00.488Z,995.6488
2022-10-04T08:18:00.658Z,995.4702
2022-10-04T08:19:00.811Z,995.5637
2022-10-04T08:20:00.940Z,995.355
2022-10-04T08:21:01.086Z,995.3621
2022-10-04T08:22:01.238Z,995.4123
2022-10-04T08:23:00.392Z,995.398
2022-10-04T08:24:00.557Z,995.3545
2022-10-04T08:25:00.691Z,995.3688
2022-10-04T08:26:00.822Z,995.6549
2022-10-04T08:27:00.978Z,995.6333
2022-10-04T08:28:01.161Z,995.4763
2022-10-04T08:29:00.271Z,995.5769
2022-10-04T08:30:00.429Z,995.5047
2022-10-04T08:31:00.620Z,995.604
2022-10-04T08:32:04.906Z,995.4976
2022-10-04T08:33:00.856Z,995.4973
2022-10-04T08:34:01.005Z,995.4973
2022-10-04T08:35:01.155Z,995.5047
2022-10-04T08:36:00.313Z,995.5552
2022-10-04T08:37:00.474Z,995.4685
2022-10-04T08:38:00.605Z,995.6468
2022-10-04T08:39:00.757Z,995.6178
2022-10-04T08:40:00.904Z,995.5616
2022-10-04T08:41:01.064Z,995.5253
2022-10-04T08:42:01.237Z,995.7181
2022-10-04T08:43:00.361Z,995.6316
2022-10-04T08:44:00.515Z,995.4747
2022-10-04T08:45:00.673Z,995.5754
2022-10-04T08:46:00.940Z,995.6095
2022-10-04T08:47:00.979Z,995.6886
2022-10-04T08:48:01.116Z,995.4956
2022-10-04T08:49:01.256Z,995.6092
2022-10-04T08:50:00.380Z,995.6521
2022-10-04T08:51:00.524Z,995.6735
2022-10-04T08:52:00.685Z,995.666
2022-10-04T08:53:00.844Z,995.6224
2022-10-04T08:54:00.970Z,995.6224
2022-10-04T08:55:01.136Z,995.7374
2022-10-04T08:56:00.284Z,995.7374
2022-10-04T08:57:00.421Z,995.7805
2022-10-04T08:58:00.567Z,995.7805
2022-10-04T08:59:00.719Z,995.5298
2022-10-04T09:00:00.859Z,995.5368
2022-10-04T09:01:01.208Z,995.5653
2022-10-04T09:02:01.177Z,995.6138
2022-10-04T09:03:00.366Z,995.6927
2022-10-04T09:04:00.445Z,995.4561
2022-10-04T09:05:00.597Z,995.6342
2022-10-04T09:06:00.757Z,995.6054
2022-10-04T09:07:00.915Z,995.4699
2022-10-04T09:08:01.038Z,995.4625
2022-10-04T09:09:01.191Z,995.556
2022-10-04T09:10:00.335Z,995.6191
2022-10-04T09:11:00.522Z,995.6259
2022-10-04T09:12:00.643Z,995.741
2022-10-04T09:13:00.794Z,995.5767
2022-10-04T09:14:00.946Z,995.6396
2022-10-04T09:15:01.095Z,995.7618
2022-10-04T09:16:01.361Z,995.6246
2022-10-04T09:17:00.388Z,995.3882
2022-10-04T09:18:00.543Z,995.4603
2022-10-04T09:19:00.689Z,995.4314
2022-10-04T09:20:19.686Z,995.5033
2022-10-04T09:21:00.999Z,995.6028
2022-10-04T09:22:01.139Z,995.6677
2022-10-04T09:23:04.173Z,995.653
2022-10-04T09:24:00.445Z,995.6024
2022-10-04T09:25:00.593Z,995.6886
2022-10-04T09:26:00.743Z,995.6814
2022-10-04T09:27:00.888Z,995.7748
2022-10-04T09:28:01.112Z,995.5526
2022-10-04T09:29:04.550Z,995.6229
2022-10-04T09:30:00.331Z,995.7021
2022-10-04T09:31:00.560Z,995.6368
2022-10-04T09:32:00.638Z,995.5733
2022-10-04T09:33:00.821Z,995.5301
2022-10-04T09:34:00.963Z,995.3644
2022-10-04T09:35:01.104Z,995.5301
2022-10-04T09:36:01.260Z,995.6074
2022-10-04T09:37:00.399Z,995.3706
2022-10-04T09:38:00.571Z,995.5288
2022-10-04T09:39:25.167Z,995.5212
2022-10-04T09:40:00.846Z,995.4919
2022-10-04T09:41:00.987Z,995.3976
2022-10-04T09:42:01.139Z,995.4483
2022-10-04T09:43:00.296Z,995.4407
2022-10-04T09:44:00.443Z,995.692
2022-10-04T09:45:00.601Z,995.4404
2022-10-04T09:46:00.785Z,995.5196
2022-10-04T09:47:00.950Z,995.5196
2022-10-04T09:48:01.072Z,995.4907
2022-10-04T09:49:01.189Z,995.7202
2022-10-04T09:50:00.324Z,995.3969
2022-10-04T09:51:00.486Z,995.404
2022-10-04T09:52:00.634Z,995.6552
2022-10-04T09:53:00.796Z,995.6552
2022-10-04T09:54:00.918Z,995.5698
2022-10-04T09:55:01.093Z,995.5698
2022-10-04T09:56:01.251Z,995.6552
2022-10-04T09:57:00.377Z,995.404
2022-10-04T09:58:00.558Z,995.6192
2022-10-04T09:59:00.661Z,995.4618
2022-10-04T10:00:00.801Z,995.512
2022-10-04T10:01:00.951Z,995.3675
2022-10-04T10:02:01.141Z,995.4325
2022-10-04T10:03:01.369Z,995.4542
2022-10-04T10:04:00.403Z,995.5553
2022-10-04T10:05:00.549Z,995.3675
2022-10-04T10:06:00.706Z,995.5262
2022-10-04T10:07:00.881Z,995.4614
2022-10-04T10:08:01.045Z,995.6116
2022-10-04T10:09:01.183Z,995.4685
2022-10-04T10:10:00.315Z,995.3818
2022-10-04T10:11:00.444Z,995.3964
2022-10-04T10:12:00.592Z,995.3458
2022-10-04T10:13:00.756Z,995.4248
2022-10-04T10:14:00.934Z,995.3528
2022-10-04T10:15:01.061Z,995.512
2022-10-04T10:16:01.278Z,995.4542
2022-10-04T10:17:00.331Z,995.4253
2022-10-04T10:18:00.487Z,995.3817
2022-10-04T10:19:00.662Z,995.6041
2022-10-04T10:20:00.782Z,995.4248
2022-10-04T10:21:00.933Z,995.5041
2022-10-04T10:22:01.076Z,995.5761
2022-10-04T10:23:01.213Z,995.6033
2022-10-04T10:24:00.388Z,995.6754
2022-10-04T10:25:00.515Z,995.496
2022-10-04T10:26:00.654Z,995.6388
2022-10-04T10:27:00.801Z,995.4307
2022-10-04T10:28:01.069Z,995.5753
2022-10-04T10:29:01.114Z,995.5245
2022-10-04T10:30:01.245Z,995.6602
2022-10-04T10:31:00.469Z,995.5753
2022-10-04T10:32:00.536Z,995.452
2022-10-04T10:33:00.682Z,995.6019
2022-10-04T10:34:00.854Z,995.3794
2022-10-04T10:35:00.969Z,995.5093
2022-10-04T10:36:01.143Z,995.4797
2022-10-04T10:37:00.278Z,995.4218
2022-10-04T10:38:04.462Z,995.6154
2022-10-04T10:39:00.570Z,995.6514
2022-10-04T10:40:00.719Z,995.6804
2022-10-04T10:41:00.870Z,995.6733
2022-10-04T10:42:01.021Z,995.789
2022-10-04T10:43:01.140Z,995.5019
2022-10-04T10:44:00.300Z,995.48
2022-10-04T10:45:00.468Z,995.6014
2022-10-04T10:46:00.601Z,995.444
2022-10-04T10:47:00.845Z,995.48
2022-10-04T10:48:00.887Z,995.7025
2022-10-04T10:49:01.030Z,995.5019
2022-10-04T10:50:01.201Z,995.4733
2022-10-04T10:51:00.370Z,995.4733
2022-10-04T10:52:00.481Z,995.4658
2022-10-04T10:53:00.637Z,995.6376
2022-10-04T10:54:00.797Z,995.48
2022-10-04T10:55:00.953Z,995.5086
2022-10-04T10:56:01.102Z,995.4575
2022-10-04T10:57:01.239Z,995.6506
2022-10-04T10:58:00.376Z,995.4859
2022-10-04T10:59:00.523Z,995.4063
2022-10-04T11:00:00.680Z,995.2906
2022-10-04T11:01:00.843Z,995.3412
2022-10-04T11:02:01.191Z,995.5221
2022-10-04T11:03:12.670Z,995.3774
2022-10-04T11:04:00.291Z,995.4931
2022-10-04T11:05:00.420Z,995.3416
2022-10-04T11:06:00.587Z,995.3416
2022-10-04T11:07:00.724Z,995.6074
2022-10-04T11:08:00.861Z,995.2981
2022-10-04T11:09:01.014Z,995.5006
2022-10-04T11:10:01.161Z,995.5149
2022-10-04T11:11:00.322Z,995.4642
2022-10-04T11:12:00.445Z,995.3554
2022-10-04T11:13:00.633Z,995.3773
2022-10-04T11:14:00.749Z,995.5149
2022-10-04T11:15:00.893Z,995.4859
2022-10-04T11:16:01.088Z,995.4712
2022-10-04T11:17:01.204Z,995.4133
2022-10-04T11:18:00.368Z,995.3408
2022-10-04T11:19:00.487Z,995.4851
2022-10-04T11:20:00.644Z,995.4851
2022-10-04T11:21:00.807Z,995.3544
2022-10-04T11:22:00.954Z,995.3544
2022-10-04T11:23:01.120Z,995.4992
2022-10-04T11:24:01.243Z,995.3109
2022-10-04T11:25:00.391Z,995.4913
2022-10-04T11:26:00.542Z,995.3104
2022-10-04T11:27:00.697Z,995.4622
2022-10-04T11:28:00.923Z,995.3826
2022-10-04T11:29:00.977Z,995.3464
2022-10-04T11:30:01.139Z,995.4258
2022-10-04T11:31:00.323Z,995.1576
2022-10-04T11:32:00.435Z,995.1643
2022-10-04T11:33:00.590Z,995.2802
2022-10-04T11:34:00.729Z,995.2511
2022-10-04T11:35:00.862Z,995.3016
2022-10-04T11:36:01.010Z,995.3087
2022-10-04T11:37:01.147Z,995.453
2022-10-04T11:38:00.292Z,995.4023
2022-10-04T11:39:00.456Z,995.3586
2022-10-04T11:40:00.578Z,995.2646
2022-10-04T11:41:00.729Z,995.3371
2022-10-04T11:42:00.874Z,995.2939
2022-10-04T11:43:01.007Z,995.2797
2022-10-04T11:44:01.177Z,995.265
2022-10-04T11:45:00.340Z,995.1633
2022-10-04T11:46:00.455Z,995.0253
2022-10-04T11:47:00.694Z,995.1768